Time;durP1;ratioP1;P1;durP2;ratioP2;P2;SDS_P1;SDS_P2;PMS_P1;PMS_P2;Temp;Humidity;BMP_temperature;BMP_pressure;BME280_temperature;BME280_humidity;BME280_pressure;Samples;Min_cycle;Max_cycle;Signal;HPM_P1;HPM_P2
2023/03/17 00:02:10;;;;;;;1999.90;999.90;;;;;;;;;;5069452;28;20205;-60
2023/03/17 00:04:37;;;;;;;1999.90;999.90;;;;;;;;;;5067214;28;20198;-60
2023/03/17 00:07:07;;;;;;;1999.90;999.90;;;;;;;;;;5071940;28;20562;-61
2023/03/17 00:09:34;;;;;;;1999.90;999.90;;;;;;;;;;5065308;28;20216;-60
2023/03/17 00:12:01;;;;;;;1999.90;999.90;;;;;;;;;;5070183;28;20198;-60
2023/03/17 00:14:28;;;;;;;1999.90;999.90;;;;;;;;;;5069097;28;20294;-60
2023/03/17 00:16:55;;;;;;;1999.90;999.90;;;;;;;;;;5071179;28;20221;-61
2023/03/17 00:19:25;;;;;;;1999.90;999.90;;;;;;;;;;5062051;28;20210;-60
2023/03/17 00:21:52;;;;;;;1999.90;999.90;;;;;;;;;;5070713;28;20215;-61
2023/03/17 00:24:21;;;;;;;1999.90;999.90;;;;;;;;;;5069388;28;20206;-60
2023/03/17 00:26:48;;;;;;;1999.90;999.90;;;;;;;;;;5070440;28;20190;-60
2023/03/17 00:29:16;;;;;;;1999.90;999.90;;;;;;;;;;5068198;28;20218;-60
2023/03/17 00:31:44;;;;;;;1999.90;999.90;;;;;;;;;;5072067;28;20189;-60
2023/03/17 00:34:12;;;;;;;1999.90;999.90;;;;;;;;;;5070540;28;20201;-60
2023/03/17 00:36:39;;;;;;;1999.90;999.90;;;;;;;;;;5071436;28;20205;-60
2023/03/17 00:39:07;;;;;;;1999.90;999.90;;;;;;;;;;5068963;28;20214;-61
2023/03/17 00:41:36;;;;;;;1999.90;999.90;;;;;;;;;;5070014;28;20293;-60
2023/03/17 00:44:03;;;;;;;1999.90;999.90;;;;;;;;;;5071169;28;20221;-60
2023/03/17 00:46:36;;;;;;;1999.90;999.90;;;;;;;;;;5069434;28;20671;-60
2023/03/17 00:49:04;;;;;;;1999.90;999.90;;;;;;;;;;5069820;28;20222;-61
2023/03/17 00:51:31;;;;;;;1999.90;999.90;;;;;;;;;;5071608;28;20236;-60
2023/03/17 00:53:58;;;;;;;1999.90;999.90;;;;;;;;;;5070643;28;20197;-61
2023/03/17 00:56:25;;;;;;;1999.90;999.90;;;;;;;;;;5071667;28;20194;-60
2023/03/17 00:58:53;;;;;;;1999.90;999.90;;;;;;;;;;5068699;28;20214;-60
2023/03/17 01:01:20;;;;;;;1999.90;999.90;;;;;;;;;;5071406;28;20193;-60
2023/03/17 01:03:47;;;;;;;1999.90;999.90;;;;;;;;;;5070754;28;20194;-60
2023/03/17 01:06:15;;;;;;;1999.90;999.90;;;;;;;;;;5071199;28;20718;-61
2023/03/17 01:08:43;;;;;;;1999.90;999.90;;;;;;;;;;5064274;28;20214;-60
2023/03/17 01:11:14;;;;;;;1999.90;999.90;;;;;;;;;;5069860;28;20655;-60
2023/03/17 01:13:42;;;;;;;1999.90;999.90;;;;;;;;;;5068783;28;20194;-60
2023/03/17 01:16:11;;;;;;;1999.90;999.90;;;;;;;;;;5071237;28;20194;-60
2023/03/17 01:18:38;;;;;;;1999.90;999.90;;;;;;;;;;5067268;28;20244;-60
2023/03/17 01:21:06;;;;;;;1999.90;999.90;;;;;;;;;;5068448;28;20233;-61
2023/03/17 01:23:33;;;;;;;1999.90;999.90;;;;;;;;;;5068933;28;20567;-60
2023/03/17 01:26:00;;;;;;;1999.90;999.90;;;;;;;;;;5071615;28;20603;-61
2023/03/17 01:28:27;;;;;;;1999.90;999.90;;;;;;;;;;5068393;28;20584;-60
2023/03/17 01:30:55;;;;;;;1999.90;999.90;;;;;;;;;;5070718;28;20694;-60
2023/03/17 01:33:24;;;;;;;1999.90;999.90;;;;;;;;;;5055533;28;20197;-60
2023/03/17 01:35:51;;;;;;;1999.90;999.90;;;;;;;;;;5071017;28;20197;-60
2023/03/17 01:38:18;;;;;;;1999.90;999.90;;;;;;;;;;5070321;28;20228;-60
2023/03/17 01:40:46;;;;;;;1999.90;999.90;;;;;;;;;;5071411;28;20205;-60
2023/03/17 01:43:18;;;;;;;1999.90;999.90;;;;;;;;;;5068402;28;20195;-60
2023/03/17 01:46:05;;;;;;;1999.90;999.90;;;;;;;;;;5063915;28;20197;-60
2023/03/17 01:48:37;;;;;;;1999.90;999.90;;;;;;;;;;5070249;28;20221;-61
2023/03/17 01:51:05;;;;;;;1999.90;999.90;;;;;;;;;;5069975;28;20194;-60
2023/03/17 01:53:33;;;;;;;1999.90;999.90;;;;;;;;;;5070659;28;20206;-60
2023/03/17 01:56:00;;;;;;;1999.90;999.90;;;;;;;;;;5070066;28;20206;-60
2023/03/17 01:58:28;;;;;;;1999.90;999.90;;;;;;;;;;5070309;28;20245;-61
2023/03/17 02:00:55;;;;;;;1999.90;999.90;;;;;;;;;;5073114;28;20203;-61
2023/03/17 02:03:23;;;;;;;1999.90;999.90;;;;;;;;;;5055061;28;20194;-60
2023/03/17 02:05:53;;;;;;;1999.90;999.90;;;;;;;;;;5062309;28;20229;-60
2023/03/17 02:08:20;;;;;;;1999.90;999.90;;;;;;;;;;5070963;28;20211;-60
2023/03/17 02:10:49;;;;;;;1999.90;999.90;;;;;;;;;;5067308;28;20198;-60
2023/03/17 02:13:16;;;;;;;1999.90;999.90;;;;;;;;;;5073470;28;20204;-60
2023/03/17 02:15:45;;;;;;;1999.90;999.90;;;;;;;;;;5074442;28;20229;-60
2023/03/17 02:18:12;;;;;;;1999.90;999.90;;;;;;;;;;5070179;28;20222;-61
2023/03/17 02:21:13;;;;;;;1999.90;999.90;;;;;;;;;;5068852;28;20195;-60
2023/03/17 02:23:41;;;;;;;1999.90;999.90;;;;;;;;;;5055253;28;20263;-60
2023/03/17 02:26:08;;;;;;;1999.90;999.90;;;;;;;;;;5073788;28;20557;-60
2023/03/17 02:28:36;;;;;;;1999.90;999.90;;;;;;;;;;5070747;28;20206;-60
2023/03/17 02:31:03;;;;;;;1999.90;999.90;;;;;;;;;;5074549;28;20201;-60
2023/03/17 02:33:30;;;;;;;1999.90;999.90;;;;;;;;;;5069090;28;20612;-60
2023/03/17 02:35:57;;;;;;;1999.90;999.90;;;;;;;;;;5070253;28;20247;-60
2023/03/17 02:38:25;;;;;;;1999.90;999.90;;;;;;;;;;5073407;28;20217;-60
2023/03/17 02:40:53;;;;;;;1999.90;999.90;;;;;;;;;;5074322;28;20193;-60
2023/03/17 02:43:21;;;;;;;1999.90;999.90;;;;;;;;;;5072945;28;20292;-60
2023/03/17 02:45:48;;;;;;;1999.90;999.90;;;;;;;;;;5061230;28;20209;-60
2023/03/17 02:48:15;;;;;;;1999.90;999.90;;;;;;;;;;5070651;28;20221;-61
2023/03/17 02:50:42;;;;;;;1999.90;999.90;;;;;;;;;;5070074;28;20217;-60
2023/03/17 02:53:09;;;;;;;1999.90;999.90;;;;;;;;;;5074045;28;20198;-60
2023/03/17 02:55:36;;;;;;;1999.90;999.90;;;;;;;;;;5071520;28;20197;-60
2023/03/17 02:58:05;;;;;;;1999.90;999.90;;;;;;;;;;5071317;28;20221;-60
2023/03/17 03:00:32;;;;;;;1999.90;999.90;;;;;;;;;;5066774;28;20574;-60
2023/03/17 03:03:00;;;;;;;1999.90;999.90;;;;;;;;;;5055484;28;20711;-61
2023/03/17 03:05:27;;;;;;;1999.90;999.90;;;;;;;;;;5071899;28;20198;-60
2023/03/17 03:07:54;;;;;;;1999.90;999.90;;;;;;;;;;5072344;28;20713;-61
2023/03/17 03:10:21;;;;;;;1999.90;999.90;;;;;;;;;;5071955;28;20194;-60
2023/03/17 03:12:48;;;;;;;1999.90;999.90;;;;;;;;;;5073403;28;20198;-60
2023/03/17 03:15:18;;;;;;;1999.90;999.90;;;;;;;;;;5064918;28;20203;-60
2023/03/17 03:17:45;;;;;;;1999.90;999.90;;;;;;;;;;5073089;28;20222;-60
2023/03/17 03:20:13;;;;;;;1999.90;999.90;;;;;;;;;;5073019;28;20204;-60
2023/03/17 03:22:40;;;;;;;1999.90;999.90;;;;;;;;;;5070655;28;20206;-60
2023/03/17 03:25:07;;;;;;;1999.90;999.90;;;;;;;;;;5072807;28;20543;-60
2023/03/17 03:27:35;;;;;;;1999.90;999.90;;;;;;;;;;5069510;28;20221;-60
2023/03/17 03:30:02;;;;;;;1999.90;999.90;;;;;;;;;;5070343;28;20782;-60
2023/03/17 03:32:30;;;;;;;1999.90;999.90;;;;;;;;;;5073314;28;20189;-60
2023/03/17 03:34:58;;;;;;;1999.90;999.90;;;;;;;;;;5071134;28;20198;-60
2023/03/17 03:37:25;;;;;;;1999.90;999.90;;;;;;;;;;5071065;28;20195;-60
2023/03/17 03:39:52;;;;;;;1999.90;999.90;;;;;;;;;;5067560;28;20205;-60
2023/03/17 03:42:19;;;;;;;1999.90;999.90;;;;;;;;;;5070632;28;20567;-61
2023/03/17 03:44:46;;;;;;;1999.90;999.90;;;;;;;;;;5069049;28;20194;-60
2023/03/17 03:47:13;;;;;;;1999.90;999.90;;;;;;;;;;5071495;28;20194;-60
2023/03/17 03:49:41;;;;;;;1999.90;999.90;;;;;;;;;;5060370;28;20211;-60
2023/03/17 03:52:08;;;;;;;1999.90;999.90;;;;;;;;;;5067712;28;20596;-60
2023/03/17 03:54:36;;;;;;;1999.90;999.90;;;;;;;;;;5070615;28;20194;-60
2023/03/17 03:57:03;;;;;;;1999.90;999.90;;;;;;;;;;5071273;28;20197;-60
2023/03/17 03:59:30;;;;;;;1999.90;999.90;;;;;;;;;;5070830;28;20217;-60
2023/03/17 04:01:57;;;;;;;;;;;;;;;;;;5065443;28;20205;-60
2023/03/17 04:04:24;;;;;;;1999.90;999.90;;;;;;;;;;5061574;28;20221;-60
2023/03/17 04:06:53;;;;;;;1999.90;999.90;;;;;;;;;;5072685;28;20194;-60
2023/03/17 04:09:20;;;;;;;1999.90;999.90;;;;;;;;;;5057582;28;20207;-60
2023/03/17 04:11:47;;;;;;;1999.90;999.90;;;;;;;;;;5052402;28;20199;-60
2023/03/17 04:14:14;;;;;;;1999.90;999.90;;;;;;;;;;5065439;28;20201;-60
2023/03/17 04:16:41;;;;;;;1999.90;999.90;;;;;;;;;;5072968;28;20204;-60
2023/03/17 04:19:09;;;;;;;1999.90;999.90;;;;;;;;;;5071602;28;20683;-60
2023/03/17 04:21:37;;;;;;;1999.90;999.90;;;;;;;;;;5072105;28;20281;-60
2023/03/17 04:24:05;;;;;;;1999.90;999.90;;;;;;;;;;5070472;28;20194;-60
2023/03/17 04:26:32;;;;;;;1999.90;999.90;;;;;;;;;;5070539;28;20198;-60
2023/03/17 04:28:59;;;;;;;1999.90;999.90;;;;;;;;;;5070433;28;20218;-60
2023/03/17 04:31:27;;;;;;;1999.90;999.90;;;;;;;;;;5070421;28;20221;-60
2023/03/17 04:33:54;;;;;;;1999.90;999.90;;;;;;;;;;5071696;28;20663;-61
2023/03/17 04:36:21;;;;;;;1999.90;999.90;;;;;;;;;;5071593;28;20198;-61
2023/03/17 04:38:49;;;;;;;1999.90;999.90;;;;;;;;;;5071899;28;20229;-60
2023/03/17 04:41:17;;;;;;;1999.90;999.90;;;;;;;;;;5071507;28;20206;-61
2023/03/17 04:43:44;;;;;;;1999.90;999.90;;;;;;;;;;5072257;28;20201;-60
2023/03/17 04:46:11;;;;;;;1999.90;999.90;;;;;;;;;;5072156;28;20194;-60
2023/03/17 04:48:38;;;;;;;1999.90;999.90;;;;;;;;;;5071955;28;20241;-61
2023/03/17 04:51:06;;;;;;;1999.90;999.90;;;;;;;;;;5072047;28;20194;-60
2023/03/17 04:53:33;;;;;;;1999.90;999.90;;;;;;;;;;5068368;28;20427;-60
2023/03/17 04:56:00;;;;;;;1999.90;999.90;;;;;;;;;;5072182;28;20257;-60
2023/03/17 04:58:29;;;;;;;1999.90;999.90;;;;;;;;;;5075005;22;20252;-61
2023/03/17 05:00:56;;;;;;;1999.90;999.90;;;;;;;;;;5051978;28;20202;-61
2023/03/17 05:03:24;;;;;;;1999.90;999.90;;;;;;;;;;5050881;28;20206;-61
2023/03/17 05:05:51;;;;;;;1999.90;999.90;;;;;;;;;;5051721;28;20603;-61
2023/03/17 05:08:19;;;;;;;1999.90;999.90;;;;;;;;;;5051653;28;20272;-61
2023/03/17 05:10:46;;;;;;;1999.90;999.90;;;;;;;;;;5051634;28;20210;-61
2023/03/17 05:13:13;;;;;;;1999.90;999.90;;;;;;;;;;5049309;28;20202;-61
2023/03/17 05:15:45;;;;;;;1999.90;999.90;;;;;;;;;;5049992;28;20798;-61
2023/03/17 05:18:12;;;;;;;1999.90;999.90;;;;;;;;;;5051728;28;20215;-61
2023/03/17 05:20:39;;;;;;;1999.90;999.90;;;;;;;;;;5036510;28;20199;-61
2023/03/17 05:23:06;;;;;;;1999.90;999.90;;;;;;;;;;5031481;28;20214;-61
2023/03/17 05:25:33;;;;;;;1999.90;999.90;;;;;;;;;;5031294;28;20203;-61
2023/03/17 05:28:00;;;;;;;1999.90;999.90;;;;;;;;;;5032114;28;20873;-60
2023/03/17 05:30:28;;;;;;;1999.90;999.90;;;;;;;;;;5044331;28;20191;-61
2023/03/17 05:32:56;;;;;;;1999.90;999.90;;;;;;;;;;5051729;28;20202;-61
2023/03/17 05:35:23;;;;;;;1999.90;999.90;;;;;;;;;;5055180;28;20211;-61
2023/03/17 05:37:51;;;;;;;1999.90;999.90;;;;;;;;;;5054141;28;20191;-61
2023/03/17 05:40:18;;;;;;;1999.90;999.90;;;;;;;;;;5055377;28;20220;-61
2023/03/17 05:42:45;;;;;;;1999.90;999.90;;;;;;;;;;5055300;28;20214;-60
2023/03/17 05:45:12;;;;;;;1999.90;999.90;;;;;;;;;;5052800;28;20222;-61
2023/03/17 05:47:40;;;;;;;1999.90;999.90;;;;;;;;;;5045871;28;20195;-61
2023/03/17 05:50:09;;;;;;;1999.90;999.90;;;;;;;;;;5036176;28;20667;-61
2023/03/17 05:52:36;;;;;;;1999.90;999.90;;;;;;;;;;5054099;28;20210;-61
2023/03/17 05:55:03;;;;;;;1999.90;999.90;;;;;;;;;;5053005;28;20231;-61
2023/03/17 05:57:32;;;;;;;1999.90;999.90;;;;;;;;;;5054706;28;20316;-61
2023/03/17 05:59:59;;;;;;;1999.90;999.90;;;;;;;;;;5034457;28;20250;-61
2023/03/17 06:02:26;;;;;;;1999.90;999.90;;;;;;;;;;5045763;28;20722;-61
2023/03/17 06:04:53;;;;;;;1999.90;999.90;;;;;;;;;;5054285;28;20225;-60
2023/03/17 06:07:22;;;;;;;1999.90;999.90;;;;;;;;;;5040161;28;20580;-60
2023/03/17 06:09:49;;;;;;;1999.90;999.90;;;;;;;;;;5035163;28;20405;-60
2023/03/17 06:12:16;;;;;;;1999.90;999.90;;;;;;;;;;5033700;28;20199;-61
2023/03/17 06:14:43;;;;;;;1999.90;999.90;;;;;;;;;;5034670;28;20605;-61
2023/03/17 06:17:11;;;;;;;1999.90;999.90;;;;;;;;;;5033889;28;20196;-62
2023/03/17 06:19:38;;;;;;;1999.90;999.90;;;;;;;;;;5034702;28;20680;-62
2023/03/17 06:22:05;;;;;;;1999.90;999.90;;;;;;;;;;5034518;28;20222;-62
2023/03/17 06:24:34;;;;;;;1999.90;999.90;;;;;;;;;;5034772;28;20227;-62
2023/03/17 06:27:01;;;;;;;;;;;;;;;;;;5034309;28;20572;-62
2023/03/17 06:29:28;;;;;;;;;;;;;;;;;;5052279;28;21140;-62
2023/03/17 06:31:55;;;;;;;1999.90;999.90;;;;;;;;;;5052987;28;20417;-62
2023/03/17 06:34:23;;;;;;;1999.90;999.90;;;;;;;;;;5042353;28;20460;-62
2023/03/17 06:36:50;;;;;;;1999.90;999.90;;;;;;;;;;5034702;28;20199;-63
2023/03/17 06:39:17;;;;;;;1999.90;999.90;;;;;;;;;;5033648;28;20215;-62
2023/03/17 06:41:46;;;;;;;1999.90;999.90;;;;;;;;;;5034447;28;20727;-62
2023/03/17 06:44:14;;;;;;;1999.90;999.90;;;;;;;;;;5033629;28;20199;-62
2023/03/17 06:46:41;;;;;;;1999.90;999.90;;;;;;;;;;5033987;28;20851;-62
2023/03/17 06:49:12;;;;;;;1999.90;999.90;;;;;;;;;;5033575;28;20250;-63
2023/03/17 06:51:39;;;;;;;1999.90;999.90;;;;;;;;;;5053779;28;20285;-62
2023/03/17 06:54:07;;;;;;;1999.90;999.90;;;;;;;;;;5054299;28;20213;-62
2023/03/17 06:56:34;;;;;;;1999.90;999.90;;;;;;;;;;5040259;28;20433;-62
2023/03/17 06:59:03;;;;;;;1999.90;999.90;;;;;;;;;;5034055;28;20489;-60
2023/03/17 07:01:31;;;;;;;1999.90;999.90;;;;;;;;;;5033905;28;20549;-62
2023/03/17 07:03:58;;;;;;;1999.90;999.90;;;;;;;;;;5034345;28;20486;-62
2023/03/17 07:06:25;;;;;;;1999.90;999.90;;;;;;;;;;5032981;28;20673;-62
2023/03/17 07:08:52;;;;;;;1999.90;999.90;;;;;;;;;;5046464;28;20700;-60
2023/03/17 07:11:19;;;;;;;1999.90;999.90;;;;;;;;;;5032324;28;20195;-62
2023/03/17 07:13:46;;;;;;;1999.90;999.90;;;;;;;;;;5033920;28;20207;-60
2023/03/17 07:16:18;;;;;;;1999.90;999.90;;;;;;;;;;5034106;28;20207;-60
2023/03/17 07:18:45;;;;;;;1999.90;999.90;;;;;;;;;;5048675;28;20646;-62
2023/03/17 07:21:12;;;;;;;1999.90;999.90;;;;;;;;;;5049875;28;20579;-60
2023/03/17 07:23:39;;;;;;;1999.90;999.90;;;;;;;;;;5046104;28;20236;-60
2023/03/17 07:26:06;;;;;;;1999.90;999.90;;;;;;;;;;5034077;28;20200;-62
2023/03/17 07:28:33;;;;;;;1999.90;999.90;;;;;;;;;;5033533;28;20236;-60
2023/03/17 07:31:01;;;;;;;1999.90;999.90;;;;;;;;;;5033352;28;20216;-60
2023/03/17 07:33:32;;;;;;;1999.90;999.90;;;;;;;;;;5032924;28;20213;-61
2023/03/17 07:36:00;;;;;;;1999.90;999.90;;;;;;;;;;5033631;28;20218;-60
2023/03/17 07:38:27;;;;;;;1999.90;999.90;;;;;;;;;;5035606;28;20241;-56
2023/03/17 07:40:54;;;;;;;1999.90;999.90;;;;;;;;;;5052492;28;20713;-56
2023/03/17 07:43:21;;;;;;;1999.90;999.90;;;;;;;;;;5052365;28;20213;-56
2023/03/17 07:45:48;;;;;;;1999.90;999.90;;;;;;;;;;5052934;28;20585;-57
2023/03/17 07:48:15;;;;;;;1999.90;999.90;;;;;;;;;;5052635;28;20262;-57
2023/03/17 07:50:44;;;;;;;1999.90;999.90;;;;;;;;;;5052894;28;20205;-58
2023/03/17 07:53:11;;;;;;;1999.90;999.90;;;;;;;;;;5049673;28;20220;-59
2023/03/17 07:55:38;;;;;;;1999.90;999.90;;;;;;;;;;5033876;28;20217;-62
2023/03/17 07:58:06;;;;;;;1999.90;999.90;;;;;;;;;;5032506;28;20245;-62
2023/03/17 08:00:33;;;;;;;1999.90;999.90;;;;;;;;;;5032463;28;20221;-62
2023/03/17 08:03:01;;;;;;;1999.90;999.90;;;;;;;;;;5046415;28;20615;-63
2023/03/17 08:05:28;;;;;;;1999.90;999.90;;;;;;;;;;5050616;28;20592;-62
2023/03/17 08:07:57;;;;;;;1999.90;999.90;;;;;;;;;;5052755;28;20360;-61
2023/03/17 08:10:25;;;;;;;1999.90;999.90;;;;;;;;;;5050049;28;20278;-63
2023/03/17 08:12:52;;;;;;;1999.90;999.90;;;;;;;;;;5036468;28;20221;-61
2023/03/17 08:15:22;;;;;;;1999.90;999.90;;;;;;;;;;5032684;28;20214;-62
2023/03/17 08:17:50;;;;;;;1999.90;999.90;;;;;;;;;;5036345;28;20496;-61
2023/03/17 08:20:23;;;;;;;1999.90;999.90;;;;;;;;;;5052276;28;20616;-61
2023/03/17 08:22:50;;;;;;;1999.90;999.90;;;;;;;;;;5051781;28;20300;-61
2023/03/17 08:25:20;;;;;;;1999.90;999.90;;;;;;;;;;5051649;28;20232;-63
2023/03/17 08:27:50;;;;;;;1999.90;999.90;;;;;;;;;;5050512;28;20300;-60
2023/03/17 08:30:19;;;;;;;1999.90;999.90;;;;;;;;;;5049833;28;20311;-61
2023/03/17 08:32:46;;;;;;;;;;;;;;;;;;5052027;28;20763;-61
2023/03/17 08:35:14;;;;;;;1999.90;999.90;;;;;;;;;;5048502;28;20428;-61
2023/03/17 08:37:41;;;;;;;1999.90;999.90;;;;;;;;;;5032015;28;20205;-61
2023/03/17 08:40:09;;;;;;;1999.90;999.90;;;;;;;;;;5039484;28;20216;-56
2023/03/17 08:42:38;;;;;;;1999.90;999.90;;;;;;;;;;5047718;28;20235;-58
2023/03/17 08:45:06;;;;;;;1999.90;999.90;;;;;;;;;;5048883;28;20220;-63
2023/03/17 08:47:33;;;;;;;1999.90;999.90;;;;;;;;;;5048939;28;20213;-66
2023/03/17 08:50:01;;;;;;;1999.90;999.90;;;;;;;;;;5030251;28;20238;-67
2023/03/17 08:52:28;;;;;;;1999.90;999.90;;;;;;;;;;5031534;28;20213;-65
2023/03/17 08:54:55;;;;;;;;;;;;;;;;;;5041690;28;20705;-66
2023/03/17 08:57:23;;;;;;;1999.90;999.90;;;;;;;;;;5037272;28;20489;-62
2023/03/17 08:59:52;;;;;;;1999.90;999.90;;;;;;;;;;5046496;28;20229;-65
2023/03/17 09:02:20;;;;;;;1999.90;999.90;;;;;;;;;;5051115;28;20580;-65
2023/03/17 09:04:48;;;;;;;1999.90;999.90;;;;;;;;;;5047724;28;20219;-64
2023/03/17 09:07:15;;;;;;;1999.90;999.90;;;;;;;;;;5049954;28;20282;-65
2023/03/17 09:09:43;;;;;;;1999.90;999.90;;;;;;;;;;5051144;28;20262;-64
2023/03/17 09:12:10;;;;;;;1999.90;999.90;;;;;;;;;;5051142;28;20220;-65
2023/03/17 09:14:38;;;;;;;1999.90;999.90;;;;;;;;;;5045698;28;20243;-64
2023/03/17 09:17:06;;;;;;;;;;;;;;;;;;5051663;28;20615;-63
2023/03/17 09:19:35;;;;;;;1999.90;999.90;;;;;;;;;;5050114;28;20589;-62
2023/03/17 09:22:03;;;;;;;1999.90;999.90;;;;;;;;;;5050769;28;20212;-62
2023/03/17 09:24:30;;;;;;;1999.90;999.90;;;;;;;;;;5047803;28;20209;-62
2023/03/17 09:26:58;;;;;;;1999.90;999.90;;;;;;;;;;5047735;28;20216;-62
2023/03/17 09:29:26;;;;;;;1999.90;999.90;;;;;;;;;;5045416;28;20228;-62
2023/03/17 09:31:53;;;;;;;1999.90;999.90;;;;;;;;;;5045725;28;20682;-63
2023/03/17 09:34:21;;;;;;;1999.90;999.90;;;;;;;;;;5050263;28;20201;-62
2023/03/17 09:36:49;;;;;;;1999.90;999.90;;;;;;;;;;5050892;28;20233;-62
2023/03/17 09:39:16;;;;;;;1999.90;999.90;;;;;;;;;;5048645;28;20226;-63
2023/03/17 09:41:55;;;;;;;1999.90;999.90;;;;;;;;;;5048245;28;20191;-63
2023/03/17 09:44:31;;;;;;;1999.90;999.90;;;;;;;;;;5047189;28;20544;-63
2023/03/17 09:46:57;;;;;;;;;;;;;;;;;;5049052;28;20211;-63
2023/03/17 09:49:30;;;;;;;1999.90;999.90;;;;;;;;;;5045156;28;20790;-63
2023/03/17 09:51:58;;;;;;;1999.90;999.90;;;;;;;;;;5047104;28;20751;-63
2023/03/17 09:54:27;;;;;;;1999.90;999.90;;;;;;;;;;5048562;28;20206;-63
2023/03/17 09:56:57;;;;;;;1999.90;999.90;;;;;;;;;;5049194;28;20205;-63
2023/03/17 09:59:36;;;;;;;1999.90;999.90;;;;;;;;;;5043004;28;20478;-65
2023/03/17 10:02:03;;;;;;;1999.90;999.90;;;;;;;;;;5046619;28;20447;-64
2023/03/17 10:04:31;;;;;;;1999.90;999.90;;;;;;;;;;5049939;28;20366;-64
2023/03/17 10:06:58;;;;;;;;;;;;;;;;;;5051497;28;20109;-62
2023/03/17 10:09:25;;;;;;;;;;;;;;;;;;5051448;28;19955;-58
2023/03/17 10:11:52;;;;;;;;;;;;;;;;;;5050862;28;19962;-59
2023/03/17 10:14:20;;;;;;;;;;;;;;;;;;5049873;28;19968;-58
2023/03/17 10:16:47;;;;;;;;;;;;;;;;;;5049596;28;20013;-65
2023/03/17 10:19:14;;;;;;;;;;;;;;;;;;5047679;28;20312;-61
2023/03/17 10:21:41;;;;;;;;;;;;;;;;;;5055042;28;19925;-64
2023/03/17 10:24:08;;;;;;;;;;;;;;;;;;5050589;28;19924;-64
2023/03/17 10:26:38;;;;;;;;;;;;;;;;;;5053336;28;19925;-65
2023/03/17 10:29:06;;;;;;;;;;;;;;;;;;5053322;28;20004;-64
2023/03/17 10:31:34;;;;;;;;;;;;;;;;;;5054242;28;20049;-64
2023/03/17 10:34:01;;;;;;;;;;;;;;;;;;5050884;28;19971;-64
2023/03/17 10:36:28;;;;;;;;;;;;;;;;;;5052155;28;19968;-64
2023/03/17 10:38:55;;;;;;;;;;;;;;;;;;5045927;28;20436;-62
2023/03/17 10:41:22;;;;;;;;;;;;;;;;;;5052862;28;19972;-63
2023/03/17 10:43:49;;;;;;;;;;;;;;;;;;5049811;28;19956;-59
2023/03/17 10:46:16;;;;;;;;;;;;;;;;;;5054675;28;19925;-59
2023/03/17 10:48:43;;;;;;;;;;;;;;;;;;5044231;28;19933;-61
2023/03/17 10:51:10;;;;;;;;;;;;;;;;;;5047238;28;19947;-59
2023/03/17 10:53:37;;;;;;;;;;;;;;;;;;5053814;28;19957;-59
2023/03/17 10:56:04;;;;;;;;;;;;;;;;;;5052590;28;19933;-59
2023/03/17 10:58:31;;;;;;;;;;;;;;;;;;5065495;22;19931;-60
2023/03/17 11:00:59;;;;;;;;;;;;;;;;;;5054691;28;19964;-59
2023/03/17 11:03:26;;;;;;;;;;;;;;;;;;5050472;28;19925;-59
2023/03/17 11:05:58;;;;;;;1999.90;999.90;;;;;;;;;;5050743;28;20341;-60
2023/03/17 11:08:25;;;;;;;1999.90;999.90;;;;;;;;;;5036677;28;20432;-60
2023/03/17 11:10:55;;;;;;;1999.90;999.90;;;;;;;;;;5053576;28;20586;-59
2023/03/17 11:13:22;;;;;;;1999.90;999.90;;;;;;;;;;5052762;28;20247;-66
2023/03/17 11:15:49;;;;;;;;;;;;;;;;;;5053121;28;20068;-60
2023/03/17 11:18:19;;;;;;;1999.90;999.90;;;;;;;;;;5052906;28;20408;-60
2023/03/17 11:20:48;;;;;;;1999.90;999.90;;;;;;;;;;5051196;28;20459;-60
2023/03/17 11:23:22;;;;;;;1999.90;999.90;;;;;;;;;;5049318;28;20438;-60
2023/03/17 11:25:52;;;;;;;1999.90;999.90;;;;;;;;;;5044526;28;20447;-60
2023/03/17 11:28:20;;;;;;;1999.90;999.90;;;;;;;;;;5052553;28;20587;-60
2023/03/17 11:30:49;;;;;;;1999.90;999.90;;;;;;;;;;5052418;28;20221;-60
2023/03/17 11:33:16;;;;;;;;;;;;;;;;;;5049712;28;20059;-60
2023/03/17 11:35:43;;;;;;;;;;;;;;;;;;5042430;28;19927;-60
2023/03/17 11:38:11;;;;;;;;;;;;;;;;;;5049252;28;19920;-60
2023/03/17 11:40:38;;;;;;;;;;;;;;;;;;5053582;28;20306;-60
2023/03/17 11:43:04;;;;;;;;;;;;;;;;;;5052051;28;19921;-59
2023/03/17 11:45:31;;;;;;;;;;;;;;;;;;5047409;28;20405;-59
2023/03/17 11:47:58;;;;;;;;;;;;;;;;;;5051374;28;19953;-60
2023/03/17 11:50:25;;;;;;;;;;;;;;;;;;5050535;28;20282;-65
2023/03/17 11:52:54;;;;;;;;;;;;;;;;;;5051440;28;19925;-60
2023/03/17 11:55:21;;;;;;;;;;;;;;;;;;5049691;28;19928;-60
2023/03/17 11:57:53;;;;;;;1999.90;999.90;;;;;;;;;;5052586;28;20409;-60
2023/03/17 12:00:21;;;;;;;;;;;;;;;;;;5050050;28;20303;-60
2023/03/17 12:02:48;;;;;;;;;;;;;;;;;;5052318;28;20444;-60
2023/03/17 12:05:15;;;;;;;;;;;;;;;;;;5046763;28;20397;-61
2023/03/17 12:07:43;;;;;;;;;;;;;;;;;;5052828;28;20341;-60
2023/03/17 12:10:10;;;;;;;;;;;;;;;;;;5044926;28;19936;-60
2023/03/17 12:12:37;;;;;;;;;;;;;;;;;;5045742;28;19920;-61
2023/03/17 12:15:04;;;;;;;;;;;;;;;;;;5050309;28;19921;-60
2023/03/17 12:17:31;;;;;;;;;;;;;;;;;;5042563;28;19975;-60
2023/03/17 12:19:58;;;;;;;;;;;;;;;;;;5048520;28;19920;-60
2023/03/17 12:22:27;;;;;;;;;;;;;;;;;;5050019;28;19921;-60
2023/03/17 12:24:54;;;;;;;;;;;;;;;;;;5051556;28;19921;-60
2023/03/17 12:27:21;;;;;;;;;;;;;;;;;;5048867;28;20010;-60
2023/03/17 12:29:48;;;;;;;;;;;;;;;;;;5052396;28;19920;-60
2023/03/17 12:32:15;;;;;;;;;;;;;;;;;;5052219;28;20143;-60
2023/03/17 12:34:43;;;;;;;;;;;;;;;;;;5036114;28;19925;-60
2023/03/17 12:37:10;;;;;;;;;;;;;;;;;;5049830;28;19920;-60
2023/03/17 12:39:39;;;;;;;;;;;;;;;;;;5051920;28;20095;-60
2023/03/17 12:42:06;;;;;;;;;;;;;;;;;;5047653;28;19929;-60
2023/03/17 12:44:33;;;;;;;;;;;;;;;;;;5050746;28;19921;-60
2023/03/17 12:47:00;;;;;;;;;;;;;;;;;;5045263;28;20310;-62
2023/03/17 12:49:27;;;;;;;;;;;;;;;;;;5052207;28;19928;-64
2023/03/17 12:51:53;;;;;;;;;;;;;;;;;;5046335;28;20382;-63
2023/03/17 12:54:21;;;;;;;;;;;;;;;;;;5044690;28;19921;-62
2023/03/17 12:56:48;;;;;;;;;;;;;;;;;;5046609;28;19920;-60
2023/03/17 12:59:15;;;;;;;;;;;;;;;;;;5046312;28;19920;-59
2023/03/17 13:01:41;;;;;;;;;;;;;;;;;;5043574;28;19938;-60
2023/03/17 13:04:08;;;;;;;;;;;;;;;;;;5047375;28;19974;-59
2023/03/17 13:06:35;;;;;;;;;;;;;;;;;;5048592;28;19935;-60
2023/03/17 13:09:02;;;;;;;;;;;;;;;;;;5046304;28;19925;-60
2023/03/17 13:11:29;;;;;;;;;;;;;;;;;;5059576;28;19932;-60
2023/03/17 13:13:58;;;;;;;;;;;;;;;;;;5055145;28;19933;-62
2023/03/17 13:16:25;;;;;;;;;;;;;;;;;;5044204;28;19921;-63
2023/03/17 13:18:52;;;;;;;;;;;;;;;;;;5048899;28;19932;-62
2023/03/17 13:21:19;;;;;;;;;;;;;;;;;;5051604;28;19921;-63
2023/03/17 13:23:46;;;;;;;;;;;;;;;;;;5047297;28;19921;-62
2023/03/17 13:26:13;;;;;;;;;;;;;;;;;;5040317;28;19920;-62
2023/03/17 13:28:40;;;;;;;;;;;;;;;;;;5048050;28;20439;-62
2023/03/17 13:31:08;;;;;;;;;;;;;;;;;;5048873;28;20425;-62
2023/03/17 13:33:36;;;;;;;;;;;;;;;;;;5049408;28;19920;-62
2023/03/17 13:36:03;;;;;;;;;;;;;;;;;;5040765;28;20448;-62
2023/03/17 13:38:30;;;;;;;;;;;;;;;;;;5043284;28;20469;-60
2023/03/17 13:40:57;;;;;;;;;;;;;;;;;;5041539;28;19939;-62
2023/03/17 13:43:24;;;;;;;;;;;;;;;;;;5049594;28;19934;-62
2023/03/17 13:45:51;;;;;;;;;;;;;;;;;;5047128;28;19941;-60
2023/03/17 13:48:18;;;;;;;;;;;;;;;;;;5049370;28;20367;-60
2023/03/17 13:50:45;;;;;;;;;;;;;;;;;;5051116;28;19921;-59
2023/03/17 13:53:12;;;;;;;;;;;;;;;;;;5046088;28;19961;-60
2023/03/17 13:55:39;;;;;;;;;;;;;;;;;;5054544;28;19940;-62
2023/03/17 13:58:06;;;;;;;;;;;;;;;;;;5053536;28;19941;-62
2023/03/17 14:00:33;;;;;;;;;;;;;;;;;;5046925;28;19955;-62
2023/03/17 14:03:00;;;;;;;;;;;;;;;;;;5054328;28;19921;-61
2023/03/17 14:05:27;;;;;;;;;;;;;;;;;;5053439;28;19927;-61
2023/03/17 14:07:54;;;;;;;;;;;;;;;;;;5052807;28;19974;-58
2023/03/17 14:10:21;;;;;;;;;;;;;;;;;;5051826;28;19932;-61
2023/03/17 14:12:48;;;;;;;;;;;;;;;;;;5045469;28;19921;-59
2023/03/17 14:15:15;;;;;;;;;;;;;;;;;;5051036;28;19965;-59
2023/03/17 14:17:42;;;;;;;;;;;;;;;;;;5053302;28;19937;-60
2023/03/17 14:20:09;;;;;;;;;;;;;;;;;;5049205;28;19925;-59
2023/03/17 14:22:36;;;;;;;;;;;;;;;;;;5049040;28;19966;-59
2023/03/17 14:25:06;;;;;;;;;;;;;;;;;;5055338;28;20320;-59
2023/03/17 14:27:34;;;;;;;;;;;;;;;;;;5048023;28;19927;-59
2023/03/17 14:30:01;;;;;;;;;;;;;;;;;;5053003;28;20462;-59
2023/03/17 14:32:27;;;;;;;;;;;;;;;;;;5051767;28;19921;-59